New Lisbon, WI

4:17 AM CST on February 14, 2016 (GMT -0600)
KWINEWLI2 | | Change Station
CLOSE
Current Station
Personal Weather Station
Location: New Lisbon, WI
Elevation: 891 ft
Nearby Weather Stations

Elev 891 ft 43.87 °N, 90.17 °W | Updated 141 days ago

Mostly Cloudy
Mostly Cloudy
2 °F
Feels Like -12 °F
N
8
Wind Variable Wind from SE
Gusts 13 mph

Today
High -- | Low -- °F
--% Chance of Precip.
Yesterday
High -- | Low -- °F
Precip. -- in
Pressure 30.40 in
Visibility 10.0 miles
Clouds Few 10000 ft
Windchill -12 °F
Dew Point -4 °F
Humidity 74%
Rainfall in
Snow Depth Not available.
7:01 AM 5:28 PM
Waxing Crescent, 40% visible
METAR KVOK 140958Z AUTO 12004KT 10SM FEW100 M24/M26 A3031 RMK AO2 SLP294 T12451262 $
Pressure 30.40 in
Visibility 10.0 miles
Clouds Few 10000 ft
Windchill -12 °F
Dew Point -4 °F
Humidity 74%
Rainfall in
Snow Depth Not available.
7:01 AM 5:28 PM
Waxing Crescent, 40% visible
METAR KVOK 140958Z AUTO 12004KT 10SM FEW100 M24/M26 A3031 RMK AO2 SLP294 T12451262 $

10-Day Weather Forecast

Almanac

Astronomy

Feb. 14, 2016 Rise Set
Actual Time
Civil Twilight
Nautical Twilight
Astronomical Twilight
Moon
Length of Visible Light
Length of Day
Tomorrow will be .
, % of the Moon is Illuminated

Today's Extremes

State Highs State Lows

Community

WunderPhotos

Upload Photos

1,892,765 photos uploaded!

WunderBlog® & News

Nearby

Air Quality

  Air Quality AQ Index Pollutant
Not available.

Snow Depth

Station Depth Elevation

Earthquake Activity

City Distance Mag. Time & Date
Minimum magnitude displayed is 2.5.

Coastal Water Temperatures

Place Temperature

Stations

Nearby Weather Stations

Station Location Temp. Windchill Dew Point Humidity Wind Precip. Elev Updated Type
                   

Watches & Warnings

There are currently no watches in effect.